Flight Track Log - Related Links

Times and Time Zones

All times are in EDT time to prevent confusion due to time zone crossing. See the ASH3726 flight status page for this flight to view local times or setup timezone preferences in your user account.

Time Position Orientation Groundspeed Altitude Reporting Facility
EDT Latitude Longitude Course Direction KTS MPH feet Rate Location/Type
Wed 02:50:11 PM 39.6833 -86.3167 218° Southwest 147 169 2,400  Level Indianapolis TRACON
Wed 02:51:11 PM 39.6500 -86.3000 159° South 219 252 4,300 1,678 Climbing Indianapolis TRACON
Wed 02:52:09 PM 39.6069 -86.2381 132° Southeast 230 265 5,700 2,050 Climbing Indianapolis Center
Wed 02:53:00 PM 39.8041 -85.6420 78° East  Level FlightAware Approximate
Wed 02:53:11 PM 39.6008 -86.1347 94° East 299 344 8,400  Level Indianapolis Center
Wed 02:54:00 PM 39.8289 -85.4809 79° East  Level FlightAware Approximate
Wed 02:54:13 PM 39.6406 -86.0081 68° East 318 366 11,000  Level Indianapolis Center
Wed 02:55:15 PM 39.6803 -85.8864 67° East 370 426 12,600 2,081 Climbing Indianapolis Center
Wed 02:56:17 PM 39.7200 -85.7600 68° East 380 437 15,300 2,488 Climbing Indianapolis Center
Wed 02:57:18 PM 39.7567 -85.6453 67° East 351 404 17,700 1,415 Climbing Indianapolis Center
Wed 02:58:20 PM 39.7972 -85.5211 67° East 374 430 18,200 1,161 Climbing Indianapolis Center
Wed 02:59:22 PM 39.8389 -85.3897 68° East 391 450 20,100 2,274 Climbing Indianapolis Center
Wed 03:00:24 PM 39.9117 -85.2544 55° Northeast 379 436 22,900 1,984 Climbing Indianapolis Center
Wed 03:01:26 PM 39.9789 -85.1506 50° Northeast 376 433 24,200 1,355 Climbing Indianapolis Center
Wed 03:02:28 PM 40.0664 -85.0703 35° Northeast 384 442 25,700 1,306 Climbing Indianapolis Center
Wed 03:03:30 PM 40.1553 -84.9886 35° Northeast 391 450 26,900 968 Climbing Indianapolis Center
Wed 03:04:32 PM 40.2267 -84.8578 54° Northeast 414 476 27,700 435 Climbing Indianapolis Center
Wed 03:05:34 PM 40.2189 -84.7003 94° East 429 494 27,800 435 Climbing Indianapolis Center
Wed 03:06:36 PM 40.2133 -84.5328 92° East 452 520 28,600 829 Climbing Indianapolis Center
Wed 03:07:37 PM 40.2075 -84.3647 93° East 457 526 29,500 927 Climbing Indianapolis Center
Wed 03:08:39 PM 40.2006 -84.1939 93° East 463 533 30,500 968 Climbing Indianapolis Center
Wed 03:09:41 PM 40.1944 -84.0261 93° East 461 531 31,500 1,065 Climbing Indianapolis Center
Wed 03:10:43 PM 40.1867 -83.8583 93° East 457 526 32,700 726 Climbing Indianapolis Center
Wed 03:11:45 PM 40.1794 -83.6919 93° East 453 521 33,000 145 Climbing Indianapolis Center
Wed 03:12:47 PM 40.1653 -83.4967 95° East 455 524 33,000  Level Indianapolis Center
Wed 03:13:49 PM 40.1406 -83.3311 101° East 455 524 33,000  Level Indianapolis Center
Wed 03:14:51 PM 40.1156 -83.1644 101° East 458 527 33,000  Level Indianapolis Center
Wed 03:15:53 PM 40.0892 -83.0000 102° East 458 527 33,000  Level Indianapolis Center
Wed 03:16:55 PM 40.0639 -82.8361 101° East 455 524 33,000  Level Indianapolis Center
Wed 03:17:57 PM 40.0383 -82.6725 101° East 455 524 33,000  Level Indianapolis Center
Wed 03:18:59 PM 40.0125 -82.5083 102° East 457 526 33,000  Level Indianapolis Center
Wed 03:20:01 PM 39.9853 -82.3433 102° East 460 529 33,000  Level Indianapolis Center
Wed 03:21:03 PM 39.9594 -82.1800 102° East 458 527 33,000  Level Indianapolis Center
Wed 03:22:05 PM 39.9314 -82.0158 103° East 461 531 33,000  Level Indianapolis Center
Wed 03:23:07 PM 39.9000 -81.8236 102° East 461 531 33,000  Level Indianapolis Center
Wed 03:24:09 PM 39.8725 -81.6581 102° East 464 534 33,000  Level Indianapolis Center
Wed 03:25:11 PM 39.8447 -81.4908 102° East 467 537 33,000  Level Indianapolis Center
Wed 03:26:13 PM 39.8164 -81.3206 102° East 469 540 33,000  Level Indianapolis Center
Wed 03:27:15 PM 39.7872 -81.1528 103° East 474 545 33,000  Level Indianapolis Center
Wed 03:28:17 PM 39.7469 -80.9892 108° East 476 548 33,000  Level Indianapolis Center
Wed 03:29:19 PM 39.6483 -80.8786 139° Southeast 470 541 33,000  Level Indianapolis Center
Wed 03:30:21 PM 39.5383 -80.7892 148° Southeast 467 537 33,000 -145 Level Indianapolis Center
Wed 03:31:23 PM 39.4517 -80.6597 131° Southeast 475 547 32,700 -726 Descending Indianapolis Center
Wed 03:32:25 PM 39.4147 -80.4506 103° East 506 582 31,500 -1,065 Descending Indianapolis Center
Wed 03:33:27 PM 39.4539 -80.2792 73° East 501 577 30,500 -968 Descending Indianapolis Center
Wed 03:34:29 PM 39.4956 -80.1103 72° East 495 570 29,500 -647 Descending Indianapolis Center
Wed 03:35:46 PM 39.5483 -79.9100 71° East 467 537 29,000 -375 Descending Cleveland Center
Wed 03:36:53 PM 39.5328 -79.7139 96° East 456 525 28,600 -750 Descending Washington Center
Wed 03:37:54 PM 39.5047 -79.5536 103° East 463 533 27,400 -793 Descending Washington Center
Wed 03:38:54 PM 39.4764 -79.3961 103° East 446 513 27,000 -198 Descending Washington Center
Wed 03:39:55 PM 39.4497 -79.2494 103° East 464 534 27,000 -446 Level Washington Center
Wed 03:40:55 PM 39.4381 -79.0850 95° East 458 527 26,100 -1,271 Descending Washington Center
Wed 03:41:53 PM 39.4322 -78.9181 93° East 443 510 24,500 -1,576 Descending Washington Center
Wed 03:42:53 PM 39.4256 -78.7781 93° East 381 438 23,000 -1,950 Descending Washington Center
Wed 03:43:53 PM 39.4208 -78.6408 93° East 373 429 20,600 -2,727 Descending Washington Center
Wed 03:44:54 PM 39.4139 -78.5089 94° East 370 426 17,500 -2,850 Descending Washington Center
Wed 03:45:53 PM 39.4106 -78.3797 92° East 365 420 14,900 -2,450 Descending Washington Center
Wed 03:46:54 PM 39.4050 -78.2586 93° East 359 413 12,600 -2,311 Descending Washington Center
Wed 03:47:55 PM 39.3969 -78.1431 95° East 344 396 10,200 -1,240 Descending Washington Center
Wed 03:48:55 PM 39.3908 -78.0381 94° East 316 364 10,100 -51 Descending Washington Center
Wed 03:49:53 PM 39.3189 -77.9925 154° Southeast 260 299 10,100  Level Washington Center
Wed 03:50:53 PM 39.2417 -77.9928 180° South 246 283 10,100  Level Washington Center
Wed 03:51:54 PM 39.1667 -77.9931 180° South 253 291 10,100 -148 Level Washington Center
Wed 03:52:55 PM 39.0897 -77.9825 174° South 272 313 9,800 -605 Descending Washington Center
Wed 03:53:53 PM 39.0414 -77.9033 128° Southeast 260 299 8,900 -1,160 Descending Washington Center
Wed 03:54:54 PM 39.0031 -77.8300 124° Southeast 246 283 7,500 -1,230 Descending Washington Center
Wed 03:55:55 PM 38.9708 -77.7622 121° Southeast 246 283 6,400 -439 Descending Washington Center
Wed 03:58:19 PM 39.0167 -77.5833 72° East 251 289 6,000 -468 Descending Potomac TRACON
Wed 03:59:20 PM 39.0833 -77.5667 11° North 227 261 4,800 -1,438 Descending Potomac TRACON
Wed 04:00:20 PM 39.1333 -77.5667 360° North 238 274 3,100 -1,150 Descending Potomac TRACON
Wed 04:01:20 PM 39.1500 -77.4833 76° East 232 267 2,500 -550 Descending Potomac TRACON
Wed 04:02:20 PM 39.1167 -77.4333 131° Southeast 221 254 2,000 -250 Descending Potomac TRACON
Wed 04:03:20 PM 39.0667 -77.4333 180° South 211 243 2,000  Level Potomac TRACON

Login

Don't have an account? Register now (free) for customized features, flight alerts, and more!